createdAt,value
2018-04-24T00:00:36.745Z,8.67
2018-04-24T00:03:03.273Z,8.50
2018-04-24T00:05:30.471Z,6.17
2018-04-24T00:07:56.968Z,8.87
2018-04-24T00:10:23.489Z,10.50
2018-04-24T00:12:50.681Z,10.57
2018-04-24T00:15:17.261Z,11.03
2018-04-24T00:17:43.714Z,7.10
2018-04-24T00:20:10.945Z,12.77
2018-04-24T00:22:37.383Z,7.53
2018-04-24T00:25:04.637Z,10.90
2018-04-24T00:27:31.870Z,10.43
2018-04-24T00:29:58.312Z,5.20
2018-04-24T00:32:24.813Z,8.87
2018-04-24T00:34:51.267Z,7.20
2018-04-24T00:37:17.919Z,6.80
2018-04-24T00:39:44.390Z,8.20
2018-04-24T00:42:10.873Z,6.63
2018-04-24T00:44:37.387Z,7.23
2018-04-24T00:47:03.857Z,8.03
2018-04-24T00:49:30.317Z,7.10
2018-04-24T00:51:56.797Z,5.40
2018-04-24T00:54:23.265Z,7.50
2018-04-24T00:56:50.438Z,11.07
2018-04-24T00:59:16.969Z,10.57
2018-04-24T01:01:43.423Z,9.37
2018-04-24T01:04:10.045Z,8.93
2018-04-24T01:06:36.457Z,8.80
2018-04-24T01:09:03.635Z,12.37
2018-04-24T01:11:30.226Z,8.43
2018-04-24T01:13:56.748Z,11.30
2018-04-24T01:16:23.289Z,9.37
2018-04-24T01:18:49.746Z,7.70
2018-04-24T01:21:16.961Z,10.83
2018-04-24T01:23:43.592Z,9.87
2018-04-24T01:26:10.065Z,10.70
2018-04-24T01:28:37.373Z,8.10
2018-04-24T01:31:03.920Z,8.30
2018-04-24T01:33:30.353Z,8.27
2018-04-24T01:35:56.850Z,6.80
2018-04-24T01:38:23.259Z,14.33
2018-04-24T01:40:50.469Z,8.53
2018-04-24T01:43:17.002Z,10.33
2018-04-24T01:45:43.409Z,10.47
2018-04-24T01:48:09.898Z,8.53
2018-04-24T01:50:36.329Z,12.07
2018-04-24T01:53:02.993Z,10.40
2018-04-24T01:55:30.181Z,8.93
2018-04-24T01:57:56.651Z,9.53
2018-04-24T02:00:23.161Z,12.67
2018-04-24T02:02:49.670Z,12.30
2018-04-24T02:05:16.230Z,15.23
2018-04-24T02:07:42.704Z,9.47
2018-04-24T02:10:09.267Z,11.00
2018-04-24T02:12:35.740Z,13.07
2018-04-24T02:15:02.238Z,10.00
2018-04-24T02:17:28.684Z,10.40
2018-04-24T02:19:55.185Z,10.60
2018-04-24T02:22:22.380Z,11.30
2018-04-24T02:24:48.842Z,12.30
2018-04-24T02:27:15.264Z,11.70
2018-04-24T02:29:41.761Z,9.00
2018-04-24T02:32:08.322Z,10.93
2018-04-24T02:34:34.756Z,11.43
2018-04-24T02:37:01.299Z,9.73
2018-04-24T02:39:28.601Z,9.13
2018-04-24T02:41:55.065Z,9.30
2018-04-24T02:44:21.633Z,11.17
2018-04-24T02:46:48.084Z,13.83
2018-04-24T02:49:15.269Z,12.57
2018-04-24T02:51:41.822Z,11.67
2018-04-24T02:54:08.277Z,14.10
2018-04-24T02:56:34.828Z,9.87
2018-04-24T02:59:01.273Z,12.33
2018-04-24T03:01:28.481Z,12.83
2018-04-24T03:03:55.031Z,12.27
2018-04-24T03:06:21.477Z,12.00
2018-04-24T03:08:47.910Z,11.23
2018-04-24T03:11:14.409Z,13.60
2018-04-24T03:13:40.956Z,11.40
2018-04-24T03:16:07.363Z,13.60
2018-04-24T03:18:33.851Z,10.73
2018-04-24T03:21:00.290Z,15.43
2018-04-24T03:23:27.497Z,10.13
2018-04-24T03:25:53.934Z,12.73
2018-04-24T03:28:20.421Z,12.83
2018-04-24T03:30:47.592Z,11.50
2018-04-24T03:33:14.081Z,11.23
2018-04-24T03:35:40.553Z,12.33
2018-04-24T03:38:06.977Z,11.40
2018-04-24T03:40:34.194Z,13.67
2018-04-24T03:43:00.644Z,11.67
2018-04-24T03:45:27.861Z,13.30
2018-04-24T03:47:54.340Z,11.00
2018-04-24T03:50:21.595Z,13.40
2018-04-24T03:52:48.767Z,12.40
2018-04-24T03:55:15.225Z,15.53
2018-04-24T03:57:41.662Z,13.93
2018-04-24T04:00:08.117Z,18.83
2018-04-24T04:02:34.586Z,11.50
2018-04-24T04:05:01.869Z,15.40
2018-04-24T04:07:28.312Z,13.40
2018-04-24T04:09:54.785Z,16.07
2018-04-24T04:12:21.333Z,16.40
2018-04-24T04:14:48.569Z,13.30
2018-04-24T04:17:27.329Z,13.07
2018-04-24T04:20:06.221Z,16.90
2018-04-24T04:22:45.460Z,12.80
2018-04-24T04:25:12.642Z,16.50
2018-04-24T04:27:39.123Z,13.57
2018-04-24T04:30:05.698Z,16.63
2018-04-24T04:32:32.183Z,14.10
2018-04-24T04:34:58.737Z,14.30
2018-04-24T04:37:25.252Z,11.97
2018-04-24T04:39:51.754Z,12.57
2018-04-24T04:42:18.242Z,12.97
2018-04-24T04:44:44.766Z,12.20
2018-04-24T04:47:11.218Z,14.77
2018-04-24T04:49:38.460Z,13.23
2018-04-24T04:52:05.662Z,12.07
2018-04-24T04:54:32.244Z,16.03
2018-04-24T04:56:59.454Z,14.63
2018-04-24T04:59:25.978Z,14.27
2018-04-24T05:01:52.517Z,12.80
2018-04-24T05:04:18.989Z,12.77
2018-04-24T05:06:45.478Z,12.53
2018-04-24T05:09:13.047Z,13.80
2018-04-24T05:11:39.932Z,14.17
2018-04-24T05:14:06.462Z,13.03
2018-04-24T05:16:33.133Z,13.70
2018-04-24T05:19:00.397Z,11.23
2018-04-24T05:21:26.988Z,12.80
2018-04-24T05:23:53.530Z,13.23
2018-04-24T05:26:20.809Z,14.63
2018-04-24T05:28:48.062Z,14.43
2018-04-24T05:31:15.247Z,12.97
2018-04-24T05:33:41.809Z,12.27
2018-04-24T05:36:08.265Z,13.00
2018-04-24T05:38:34.737Z,10.80
2018-04-24T05:41:01.214Z,10.60
2018-04-24T05:43:27.781Z,13.93
2018-04-24T05:45:56.146Z,16.20
2018-04-24T05:48:22.644Z,16.20
2018-04-24T05:50:49.129Z,10.10
2018-04-24T05:53:16.362Z,12.83
2018-04-24T05:55:42.798Z,12.23
2018-04-24T05:58:09.296Z,10.13
2018-04-24T06:00:35.758Z,13.77
2018-04-24T06:03:02.238Z,11.77
2018-04-24T06:05:28.703Z,16.13
2018-04-24T06:07:55.144Z,11.30
2018-04-24T06:10:21.698Z,11.10
2018-04-24T06:12:48.121Z,11.57
2018-04-24T06:15:14.609Z,10.33
2018-04-24T06:17:41.068Z,15.97
2018-04-24T06:20:07.506Z,14.33
2018-04-24T06:22:34.013Z,9.73
2018-04-24T06:25:00.509Z,12.10
2018-04-24T06:27:27.654Z,11.43
2018-04-24T06:29:54.079Z,12.37
2018-04-24T06:32:20.585Z,8.67
2018-04-24T06:34:47.050Z,9.23
2018-04-24T06:37:13.553Z,6.90
2018-04-24T06:39:40.137Z,9.17
2018-04-24T06:42:07.365Z,12.70
2018-04-24T06:44:33.881Z,9.60
2018-04-24T06:47:00.332Z,13.13
2018-04-24T06:49:26.849Z,9.87
2018-04-24T06:51:53.359Z,11.07
2018-04-24T06:54:19.800Z,11.10
2018-04-24T06:56:46.245Z,9.03
2018-04-24T06:59:12.695Z,7.80
2018-04-24T07:01:39.145Z,9.47
2018-04-24T07:04:06.039Z,10.13
2018-04-24T07:06:32.514Z,9.13
2018-04-24T07:08:58.958Z,8.70
2018-04-24T07:11:25.454Z,7.33
2018-04-24T07:13:51.908Z,8.17
2018-04-24T07:16:18.369Z,8.23
2018-04-24T07:18:45.602Z,8.20
2018-04-24T07:21:12.061Z,7.40
2018-04-24T07:23:39.232Z,9.37
2018-04-24T07:26:05.709Z,6.70
2018-04-24T07:28:32.186Z,11.37
2018-04-24T07:30:58.615Z,9.33
2018-04-24T07:33:25.845Z,10.83
2018-04-24T07:35:52.349Z,6.60
2018-04-24T07:38:18.808Z,7.80
2018-04-24T07:40:45.237Z,4.17
2018-04-24T07:43:11.736Z,13.27
2018-04-24T07:45:38.188Z,7.50
2018-04-24T07:48:04.604Z,9.17
2018-04-24T07:50:31.065Z,7.70
2018-04-24T07:52:57.493Z,8.20
2018-04-24T07:55:23.978Z,8.27
2018-04-24T07:57:50.386Z,8.57
2018-04-24T08:00:17.585Z,6.10
2018-04-24T08:02:44.001Z,5.77
2018-04-24T08:05:10.493Z,6.13
2018-04-24T08:07:37.709Z,6.93
2018-04-24T08:10:04.185Z,7.83
2018-04-24T08:12:31.376Z,6.90
2018-04-24T08:14:57.916Z,8.17
2018-04-24T08:17:24.341Z,5.67
2018-04-24T08:19:50.886Z,6.70
2018-04-24T08:22:17.326Z,7.10
2018-04-24T08:24:43.790Z,6.63
2018-04-24T08:27:10.277Z,8.10
2018-04-24T08:29:36.756Z,5.87
2018-04-24T08:32:03.245Z,5.40
2018-04-24T08:34:29.722Z,6.60
2018-04-24T08:36:56.203Z,6.80
2018-04-24T08:39:22.621Z,6.67
2018-04-24T08:41:49.858Z,9.30
2018-04-24T08:44:16.310Z,5.80
2018-04-24T08:46:43.519Z,5.23
2018-04-24T08:49:09.986Z,8.00
2018-04-24T08:51:37.230Z,8.13
2018-04-24T08:54:04.540Z,7.23
2018-04-24T08:56:31.077Z,6.63
2018-04-24T08:58:57.436Z,6.70
2018-04-24T09:01:23.873Z,9.07
2018-04-24T09:03:50.377Z,6.97
2018-04-24T09:06:16.830Z,8.27
2018-04-24T09:08:43.314Z,7.90
2018-04-24T09:11:09.778Z,5.60
2018-04-24T09:13:36.283Z,5.90
2018-04-24T09:16:02.693Z,4.13
2018-04-24T09:18:29.847Z,6.23
2018-04-24T09:20:57.077Z,5.73
2018-04-24T09:23:23.734Z,7.10
2018-04-24T09:25:50.986Z,6.63
2018-04-24T09:28:18.124Z,7.23
2018-04-24T09:30:45.333Z,7.47
2018-04-24T09:33:11.765Z,6.27
2018-04-24T09:35:38.225Z,6.20
2018-04-24T09:38:04.673Z,6.90
2018-04-24T09:40:31.873Z,4.93
2018-04-24T09:42:58.293Z,9.13
2018-04-24T09:45:24.760Z,7.20
2018-04-24T09:47:51.238Z,5.30
2018-04-24T09:50:18.546Z,7.07
2018-04-24T09:52:44.989Z,3.70
2018-04-24T09:55:12.272Z,5.43
2018-04-24T09:57:39.505Z,6.43
2018-04-24T10:00:06.586Z,6.90
2018-04-24T10:02:33.081Z,5.27
2018-04-24T10:04:59.689Z,5.43
2018-04-24T10:07:26.165Z,6.90
2018-04-24T10:09:53.370Z,6.03
2018-04-24T10:12:19.850Z,5.77
2018-04-24T10:14:47.183Z,16.97
2018-04-24T10:17:13.683Z,6.90
2018-04-24T10:19:40.210Z,6.53
2018-04-24T10:22:06.708Z,6.97
2018-04-24T10:24:33.282Z,6.87
2018-04-24T10:26:59.721Z,8.23
2018-04-24T10:29:26.190Z,6.50
2018-04-24T10:31:52.644Z,3.80
2018-04-24T10:34:19.189Z,5.30
2018-04-24T10:36:46.384Z,5.90
2018-04-24T10:39:12.904Z,5.33
2018-04-24T10:41:39.400Z,10.90
2018-04-24T10:44:06.765Z,4.87
2018-04-24T10:46:33.993Z,4.90
2018-04-24T10:49:00.546Z,4.33
2018-04-24T10:51:27.837Z,5.10
2018-04-24T10:53:54.285Z,4.63
2018-04-24T10:56:20.725Z,7.03
2018-04-24T10:58:47.278Z,6.00
2018-04-24T11:01:13.769Z,5.93
2018-04-24T11:03:40.330Z,10.40
2018-04-24T11:06:06.840Z,5.60
2018-04-24T11:08:33.319Z,3.97
2018-04-24T11:11:01.861Z,4.00
2018-04-24T11:13:28.333Z,5.03
2018-04-24T11:15:54.859Z,7.27
2018-04-24T11:18:21.359Z,6.17
2018-04-24T11:20:47.829Z,4.70
2018-04-24T11:23:14.263Z,6.43
2018-04-24T11:25:40.769Z,5.77
2018-04-24T11:28:07.223Z,5.80
2018-04-24T11:30:33.709Z,5.37
2018-04-24T11:33:00.960Z,5.03
2018-04-24T11:35:28.167Z,5.83
2018-04-24T11:37:54.734Z,5.20
2018-04-24T11:40:21.943Z,6.23
2018-04-24T11:42:48.409Z,6.80
2018-04-24T11:45:14.871Z,6.10
2018-04-24T11:47:42.146Z,7.87
2018-04-24T11:50:08.591Z,6.77
2018-04-24T11:52:35.062Z,5.80
2018-04-24T11:55:01.535Z,6.40
2018-04-24T11:57:28.053Z,6.23
2018-04-24T11:59:55.315Z,5.87
2018-04-24T12:02:21.795Z,6.17
2018-04-24T12:04:48.267Z,11.40
2018-04-24T12:07:15.942Z,6.30
2018-04-24T12:09:42.439Z,6.87
2018-04-24T12:12:09.147Z,7.27
2018-04-24T12:14:35.583Z,8.40
2018-04-24T12:17:02.029Z,6.70
2018-04-24T12:19:28.498Z,6.43
2018-04-24T12:21:55.706Z,5.90
2018-04-24T12:24:22.359Z,7.23
2018-04-24T12:26:48.790Z,5.60
2018-04-24T12:29:15.351Z,7.23
2018-04-24T12:31:42.576Z,5.53
2018-04-24T12:34:09.107Z,5.97
2018-04-24T12:36:35.606Z,6.00
2018-04-24T12:39:02.081Z,7.27
2018-04-24T12:41:28.578Z,5.73
2018-04-24T12:43:55.093Z,5.43
2018-04-24T12:46:21.620Z,7.70
2018-04-24T12:48:49.003Z,8.13
2018-04-24T12:51:15.763Z,6.70
2018-04-24T12:53:42.246Z,5.63
2018-04-24T12:56:09.481Z,5.53
2018-04-24T12:58:36.062Z,5.90
2018-04-24T13:01:02.530Z,5.93
2018-04-24T13:03:29.022Z,9.07
2018-04-24T13:05:55.575Z,8.07
2018-04-24T13:08:22.069Z,6.40
2018-04-24T13:10:51.042Z,6.03
2018-04-24T13:13:17.481Z,4.80
2018-04-24T13:15:43.930Z,5.60
2018-04-24T13:18:11.172Z,7.10
2018-04-24T13:20:38.365Z,6.03
2018-04-24T13:23:04.842Z,7.73
2018-04-24T13:25:31.308Z,7.13
2018-04-24T13:27:58.518Z,5.77
2018-04-24T13:30:24.951Z,6.97
2018-04-24T13:32:51.669Z,7.43
2018-04-24T13:35:18.162Z,6.23
2018-04-24T13:37:45.362Z,7.40
2018-04-24T13:40:11.805Z,8.20
2018-04-24T13:42:38.457Z,6.77
2018-04-24T13:45:04.925Z,6.80
2018-04-24T13:47:31.421Z,7.03
2018-04-24T13:49:57.840Z,6.60
2018-04-24T13:52:24.394Z,5.00
2018-04-24T13:54:55.592Z,6.10
2018-04-24T13:57:22.007Z,4.97
2018-04-24T13:59:48.513Z,5.63
2018-04-24T14:02:15.858Z,6.90
2018-04-24T14:04:42.412Z,5.50
2018-04-24T14:07:09.604Z,8.00
2018-04-24T14:09:36.094Z,6.33
2018-04-24T14:12:03.491Z,6.80
2018-04-24T14:14:29.951Z,5.63
2018-04-24T14:16:56.587Z,6.20
2018-04-24T14:19:23.133Z,7.87
2018-04-24T14:21:52.113Z,5.37
2018-04-24T14:24:19.537Z,5.17
2018-04-24T14:26:46.050Z,5.67
2018-04-24T14:29:13.397Z,5.97
2018-04-24T14:31:40.854Z,6.27
2018-04-24T14:34:08.265Z,12.13
2018-04-24T14:36:35.011Z,5.00
2018-04-24T14:39:01.524Z,5.60
2018-04-24T14:41:27.974Z,5.50
2018-04-24T14:43:54.490Z,5.43
2018-04-24T14:46:20.973Z,6.00
2018-04-24T14:48:47.563Z,6.93
2018-04-24T14:51:14.061Z,7.70
2018-04-24T14:53:41.256Z,6.83
2018-04-24T14:56:07.730Z,5.60
2018-04-24T14:58:34.215Z,6.83
2018-04-24T15:01:00.707Z,7.07
2018-04-24T15:03:27.900Z,4.73
2018-04-24T15:05:54.477Z,6.67
2018-04-24T15:08:20.938Z,5.97
2018-04-24T15:10:48.142Z,7.87
2018-04-24T15:13:14.770Z,8.43
2018-04-24T15:15:41.209Z,6.57
2018-04-24T15:18:07.696Z,6.10
2018-04-24T15:20:34.925Z,6.60
2018-04-24T15:23:01.382Z,5.60
2018-04-24T15:25:28.074Z,5.97
2018-04-24T15:27:54.529Z,6.80
2018-04-24T15:30:21.068Z,5.80
2018-04-24T15:32:47.973Z,5.33
2018-04-24T15:35:14.420Z,5.20
2018-04-24T15:37:41.671Z,5.33
2018-04-24T15:40:08.122Z,5.23
2018-04-24T15:42:34.571Z,7.80
2018-04-24T15:45:02.372Z,6.60
2018-04-24T15:47:28.881Z,6.83
2018-04-24T15:49:56.262Z,6.60
2018-04-24T15:52:22.712Z,6.43
2018-04-24T15:54:49.550Z,6.00
2018-04-24T15:57:16.705Z,6.40
2018-04-24T15:59:43.202Z,6.43
2018-04-24T16:02:09.710Z,6.93
2018-04-24T16:04:36.953Z,7.00
2018-04-24T16:07:03.455Z,6.10
2018-04-24T16:09:29.976Z,6.27
2018-04-24T16:11:56.511Z,6.17
2018-04-24T16:14:22.951Z,6.20
2018-04-24T16:16:49.609Z,8.77
2018-04-24T16:19:16.125Z,5.87
2018-04-24T16:21:42.872Z,6.00
2018-04-24T16:24:09.444Z,6.10
2018-04-24T16:26:35.901Z,7.63
2018-04-24T16:29:03.105Z,7.97
2018-04-24T16:31:29.550Z,6.00
2018-04-24T16:33:56.108Z,7.07
2018-04-24T16:36:22.543Z,7.90
2018-04-24T16:38:49.762Z,7.50
2018-04-24T16:41:16.237Z,6.87
2018-04-24T16:43:43.453Z,7.07
2018-04-24T16:46:09.950Z,6.70
2018-04-24T16:48:36.471Z,6.70
2018-04-24T16:51:02.935Z,7.50
2018-04-24T16:53:29.421Z,6.40
2018-04-24T16:55:56.761Z,6.33
2018-04-24T16:58:23.807Z,8.30
2018-04-24T17:00:50.424Z,6.20
2018-04-24T17:03:16.871Z,6.80
2018-04-24T17:05:43.465Z,7.30
2018-04-24T17:08:09.915Z,8.30
2018-04-24T17:10:36.639Z,6.20
2018-04-24T17:13:03.127Z,8.43
2018-04-24T17:15:30.349Z,6.40
2018-04-24T17:17:56.841Z,6.00
2018-04-24T17:20:23.381Z,6.50
2018-04-24T17:22:49.848Z,6.53
2018-04-24T17:25:17.346Z,7.33
2018-04-24T17:27:44.572Z,8.70
2018-04-24T17:30:11.026Z,7.57
2018-04-24T17:32:38.245Z,7.97
2018-04-24T17:35:04.897Z,6.27
2018-04-24T17:37:31.355Z,6.60
2018-04-24T17:39:58.659Z,8.90
2018-04-24T17:42:25.184Z,6.93
2018-04-24T17:44:51.719Z,7.90
2018-04-24T17:47:18.262Z,6.73
2018-04-24T17:49:44.753Z,7.70
2018-04-24T17:52:13.766Z,7.57
2018-04-24T17:54:41.092Z,10.07
2018-04-24T17:57:08.836Z,8.40
2018-04-24T17:59:35.278Z,6.47
2018-04-24T18:02:01.704Z,12.90
2018-04-24T18:04:28.397Z,8.20
2018-04-24T18:06:54.842Z,8.30
2018-04-24T18:09:21.356Z,9.47
2018-04-24T18:11:48.047Z,8.33
2018-04-24T18:14:14.535Z,7.07
2018-04-24T18:16:41.118Z,7.17
2018-04-24T18:19:07.610Z,10.50
2018-04-24T18:21:34.199Z,7.77
2018-04-24T18:24:00.715Z,6.80
2018-04-24T18:26:27.447Z,8.90
2018-04-24T18:28:53.928Z,8.90
2018-04-24T18:31:20.417Z,10.10
2018-04-24T18:33:46.943Z,7.47
2018-04-24T18:36:13.401Z,10.87
2018-04-24T18:38:40.295Z,9.73
2018-04-24T18:41:06.866Z,6.80
2018-04-24T18:43:33.429Z,6.87
2018-04-24T18:46:00.716Z,7.93
2018-04-24T18:48:27.210Z,7.90
2018-04-24T18:50:53.697Z,9.53
2018-04-24T18:53:20.152Z,9.60
2018-04-24T18:55:46.735Z,9.17
2018-04-24T18:58:14.067Z,8.80
2018-04-24T19:00:40.631Z,12.73
2018-04-24T19:03:07.197Z,7.57
2018-04-24T19:05:33.878Z,7.87
2018-04-24T19:08:00.367Z,7.10
2018-04-24T19:10:27.030Z,7.97
2018-04-24T19:12:53.538Z,11.40
2018-04-24T19:15:20.096Z,9.97
2018-04-24T19:17:46.608Z,10.00
2018-04-24T19:20:13.167Z,9.23
2018-04-24T19:22:39.705Z,8.77
2018-04-24T19:25:12.202Z,9.93
2018-04-24T19:27:39.467Z,8.47
2018-04-24T19:30:06.701Z,9.83
2018-04-24T19:32:33.508Z,7.83
2018-04-24T19:35:00.016Z,9.30
2018-04-24T19:37:26.577Z,8.67
2018-04-24T19:39:59.135Z,10.03
2018-04-24T19:42:25.685Z,8.43
2018-04-24T19:44:52.199Z,9.47
2018-04-24T19:47:18.713Z,12.77
2018-04-24T19:49:51.941Z,9.67
2018-04-24T19:52:18.505Z,9.97
2018-04-24T19:54:51.742Z,13.60
2018-04-24T19:57:19.010Z,9.97
2018-04-24T19:59:45.575Z,10.50
2018-04-24T20:02:12.199Z,10.77
2018-04-24T20:04:38.733Z,13.00
2018-04-24T20:07:05.200Z,10.90
2018-04-24T20:09:31.929Z,13.23
2018-04-24T20:11:58.454Z,11.77
2018-04-24T20:14:24.977Z,11.87
2018-04-24T20:16:51.492Z,11.80
2018-04-24T20:19:18.097Z,12.40
2018-04-24T20:21:45.344Z,9.53
2018-04-24T20:24:12.535Z,10.40
2018-04-24T20:26:39.034Z,11.83
2018-04-24T20:29:06.237Z,10.63
2018-04-24T20:31:32.929Z,13.63
2018-04-24T20:34:00.255Z,14.13
2018-04-24T20:36:26.816Z,10.47
2018-04-24T20:38:54.058Z,10.73
2018-04-24T20:41:20.828Z,14.40
2018-04-24T20:43:47.299Z,12.07
2018-04-24T20:46:13.908Z,11.47
2018-04-24T20:48:40.430Z,16.70
2018-04-24T20:51:06.986Z,10.33
2018-04-24T20:53:33.573Z,10.60
2018-04-24T20:55:59.946Z,11.63
2018-04-24T20:58:26.779Z,13.17
2018-04-24T21:00:53.385Z,14.70
2018-04-24T21:03:21.005Z,16.47
2018-04-24T21:05:47.555Z,20.97
2018-04-24T21:08:17.008Z,13.90
2018-04-24T21:10:43.581Z,12.87
2018-04-24T21:13:10.045Z,11.63
2018-04-24T21:15:36.541Z,11.10
2018-04-24T21:18:02.981Z,10.87
2018-04-24T21:20:29.469Z,11.70
2018-04-24T21:22:56.677Z,18.70
2018-04-24T21:25:23.287Z,10.83
2018-04-24T21:27:49.759Z,12.20
2018-04-24T21:30:16.269Z,10.90
2018-04-24T21:32:42.720Z,11.47
2018-04-24T21:35:09.263Z,12.20
2018-04-24T21:37:35.838Z,13.03
2018-04-24T21:40:02.412Z,11.30
2018-04-24T21:42:28.941Z,11.97
2018-04-24T21:44:55.502Z,12.57
2018-04-24T21:47:22.198Z,10.40
2018-04-24T21:49:48.683Z,11.87
2018-04-24T21:52:15.323Z,12.00
2018-04-24T21:54:41.779Z,15.83
2018-04-24T21:57:09.027Z,13.83
2018-04-24T21:59:35.569Z,14.17
2018-04-24T22:02:02.778Z,13.43
2018-04-24T22:04:29.258Z,12.53
2018-04-24T22:06:56.533Z,11.83
2018-04-24T22:09:23.078Z,11.53
2018-04-24T22:11:49.571Z,12.13
2018-04-24T22:14:16.792Z,13.90
2018-04-24T22:16:43.503Z,12.90
2018-04-24T22:19:10.165Z,12.33
2018-04-24T22:21:36.597Z,13.13
2018-04-24T22:24:03.093Z,12.17
2018-04-24T22:26:29.566Z,12.40
2018-04-24T22:28:56.003Z,12.13
2018-04-24T22:31:22.494Z,11.77
2018-04-24T22:33:48.971Z,13.93
2018-04-24T22:36:16.245Z,15.07
2018-04-24T22:38:44.093Z,15.77
2018-04-24T22:41:10.539Z,18.67
2018-04-24T22:43:37.058Z,14.00
2018-04-24T22:46:03.564Z,16.33
2018-04-24T22:48:37.047Z,14.50
2018-04-24T22:51:03.489Z,15.43
2018-04-24T22:53:37.008Z,15.60
2018-04-24T22:56:03.537Z,15.73
2018-04-24T22:58:30.018Z,14.47
2018-04-24T23:00:56.450Z,15.57
2018-04-24T23:03:23.871Z,13.33
2018-04-24T23:05:50.371Z,15.63
2018-04-24T23:08:16.825Z,19.10
2018-04-24T23:10:55.398Z,14.47
2018-04-24T23:13:35.772Z,13.23
2018-04-24T23:16:15.207Z,13.00
2018-04-24T23:18:54.716Z,13.57
2018-04-24T23:21:20.846Z,13.30
2018-04-24T23:23:47.313Z,12.33
2018-04-24T23:26:13.760Z,13.50
2018-04-24T23:28:40.234Z,13.17
2018-04-24T23:31:06.665Z,12.80
2018-04-24T23:33:33.181Z,12.23
2018-04-24T23:35:59.584Z,16.80
2018-04-24T23:38:26.042Z,15.23
2018-04-24T23:40:52.457Z,14.40
2018-04-24T23:43:18.937Z,12.97
2018-04-24T23:45:45.400Z,15.27
2018-04-24T23:48:12.608Z,13.90
2018-04-24T23:50:39.094Z,13.13
2018-04-24T23:53:06.273Z,16.57
2018-04-24T23:55:32.794Z,13.37
2018-04-24T23:57:59.267Z,12.17
